createdAt,value
2023-04-10T00:02:26.645Z,99.90
2023-04-10T00:05:01.709Z,99.90
2023-04-10T00:07:34.136Z,99.90
2023-04-10T00:10:06.302Z,99.90
2023-04-10T00:12:38.296Z,99.90
2023-04-10T00:15:11.916Z,99.90
2023-04-10T00:17:44.109Z,99.90
2023-04-10T00:20:16.280Z,99.90
2023-04-10T00:22:48.361Z,99.90
2023-04-10T00:25:20.525Z,99.90
2023-04-10T00:27:53.562Z,99.90
2023-04-10T00:30:25.512Z,99.90
2023-04-10T00:32:57.510Z,99.90
2023-04-10T00:35:29.409Z,99.90
2023-04-10T00:38:01.280Z,99.90
2023-04-10T00:40:33.400Z,99.90
2023-04-10T00:43:05.268Z,99.90
2023-04-10T00:45:37.281Z,99.90
2023-04-10T00:48:09.296Z,99.90
2023-04-10T00:50:41.475Z,99.90
2023-04-10T00:53:13.466Z,99.90
2023-04-10T00:55:46.109Z,99.90
2023-04-10T00:58:18.083Z,99.90
2023-04-10T01:00:51.672Z,99.90
2023-04-10T01:03:24.566Z,99.90
2023-04-10T01:06:24.775Z,99.90
2023-04-10T01:09:10.248Z,99.90
2023-04-10T01:11:48.219Z,99.90
2023-04-10T01:14:36.422Z,99.90
2023-04-10T01:17:13.185Z,99.90
2023-04-10T01:20:05.533Z,99.90
2023-04-10T01:23:11.189Z,99.90
2023-04-10T01:26:05.701Z,99.90
2023-04-10T01:28:43.446Z,99.90
2023-04-10T01:31:21.989Z,99.90
2023-04-10T01:34:02.665Z,99.90
2023-04-10T01:36:39.247Z,99.90
2023-04-10T01:39:12.360Z,99.90
2023-04-10T01:41:46.530Z,99.90
2023-04-10T01:44:29.155Z,99.90
2023-04-10T01:47:02.540Z,99.90
2023-04-10T01:49:44.589Z,99.90
2023-04-10T01:52:17.931Z,99.90
2023-04-10T01:54:54.897Z,99.90
2023-04-10T01:57:38.659Z,99.90
2023-04-10T02:00:11.110Z,99.90
2023-04-10T02:02:49.493Z,99.90
2023-04-10T02:05:23.117Z,99.90
2023-04-10T02:08:15.711Z,99.90
2023-04-10T02:11:05.843Z,99.90
2023-04-10T02:13:40.922Z,99.90
2023-04-10T02:16:17.418Z,99.90
2023-04-10T02:18:51.712Z,99.90
2023-04-10T02:21:23.739Z,99.90
2023-04-10T02:23:58.436Z,99.90
2023-04-10T02:26:30.353Z,99.90
2023-04-10T02:29:02.265Z,99.90
2023-04-10T02:31:34.177Z,99.90
2023-04-10T02:34:06.077Z,99.90
2023-04-10T02:36:41.321Z,99.90
2023-04-10T02:39:15.886Z,99.90
2023-04-10T02:41:53.528Z,99.90
2023-04-10T02:44:26.180Z,99.90
2023-04-10T02:46:58.870Z,99.90
2023-04-10T02:49:31.727Z,99.90
2023-04-10T02:52:07.422Z,99.90
2023-04-10T02:54:40.333Z,99.90
2023-04-10T02:57:12.306Z,99.90
2023-04-10T02:59:44.724Z,99.90
2023-04-10T03:02:17.879Z,99.90
2023-04-10T03:04:50.509Z,99.90
2023-04-10T03:07:22.368Z,99.90
2023-04-10T03:09:54.378Z,99.90
2023-04-10T03:12:27.028Z,99.90
2023-04-10T03:14:58.887Z,99.90
2023-04-10T03:17:30.797Z,99.90
2023-04-10T03:20:02.745Z,99.90
2023-04-10T03:22:36.564Z,99.90
2023-04-10T03:25:09.010Z,99.90
2023-04-10T03:27:41.235Z,99.90
2023-04-10T03:30:13.203Z,99.90
2023-04-10T03:32:47.285Z,99.90
2023-04-10T03:35:19.323Z,99.90
2023-04-10T03:37:51.276Z,99.90
2023-04-10T03:40:23.191Z,99.90
2023-04-10T03:42:55.183Z,99.90
2023-04-10T03:45:27.425Z,99.90
2023-04-10T03:47:59.566Z,99.90
2023-04-10T03:50:33.137Z,99.90
2023-04-10T03:53:05.843Z,99.90
2023-04-10T03:55:38.723Z,99.90
2023-04-10T03:58:10.683Z,99.90
2023-04-10T04:00:42.599Z,99.90
2023-04-10T04:03:27.209Z,99.90
2023-04-10T04:06:05.577Z,99.90
2023-04-10T04:08:38.785Z,99.90
2023-04-10T04:11:40.645Z,99.90
2023-04-10T04:14:21.586Z,99.90
2023-04-10T04:17:01.312Z,99.90
2023-04-10T04:20:00.637Z,99.90
2023-04-10T04:22:59.064Z,99.90
2023-04-10T04:25:52.770Z,99.90
2023-04-10T04:28:39.839Z,99.90
2023-04-10T04:31:32.501Z,99.90
2023-04-10T04:34:18.994Z,99.90
2023-04-10T04:37:16.334Z,99.90
2023-04-10T04:40:02.071Z,99.90
2023-04-10T04:42:44.209Z,99.90
2023-04-10T04:45:49.096Z,99.90
2023-04-10T04:48:42.169Z,99.90
2023-04-10T04:51:27.152Z,99.90
2023-04-10T04:54:22.696Z,99.90
2023-04-10T04:57:17.552Z,99.90
2023-04-10T05:00:10.252Z,99.90
2023-04-10T05:02:54.405Z,99.90
2023-04-10T05:05:35.560Z,99.90
2023-04-10T05:08:27.713Z,99.90
2023-04-10T05:11:29.985Z,99.90
2023-04-10T05:14:22.266Z,99.90
2023-04-10T05:17:12.949Z,99.90
2023-04-10T05:19:48.174Z,99.90
2023-04-10T05:22:29.618Z,99.90
2023-04-10T05:25:19.721Z,99.90
2023-04-10T05:28:10.343Z,99.90
2023-04-10T05:30:58.540Z,99.90
2023-04-10T05:33:48.972Z,99.90
2023-04-10T05:36:29.795Z,99.90
2023-04-10T05:39:12.188Z,99.90
2023-04-10T05:41:58.894Z,99.90
2023-04-10T05:44:38.212Z,99.90
2023-04-10T05:47:36.182Z,99.90
2023-04-10T05:50:30.765Z,99.90
2023-04-10T05:53:32.361Z,99.90
2023-04-10T05:56:36.762Z,99.90
2023-04-10T05:59:31.116Z,99.90
2023-04-10T06:02:08.366Z,99.90
2023-04-10T06:04:40.637Z,99.90
2023-04-10T06:07:12.885Z,99.90
2023-04-10T06:09:45.786Z,99.90
2023-04-10T06:12:17.774Z,99.50
2023-04-10T06:14:49.841Z,99.00
2023-04-10T06:17:25.967Z,98.50
2023-04-10T06:20:01.067Z,98.80
2023-04-10T06:22:32.940Z,98.50
2023-04-10T06:25:05.517Z,97.90
2023-04-10T06:27:37.686Z,97.50
2023-04-10T06:30:12.776Z,96.90
2023-04-10T06:32:44.738Z,97.00
2023-04-10T06:35:17.286Z,97.60
2023-04-10T06:37:49.180Z,97.70
2023-04-10T06:40:21.032Z,96.70
2023-04-10T06:42:52.836Z,96.80
2023-04-10T06:45:34.187Z,96.50
2023-04-10T06:48:06.964Z,95.90
2023-04-10T06:50:38.910Z,95.30
2023-04-10T06:53:11.066Z,94.80
2023-04-10T06:55:42.999Z,94.40
2023-04-10T06:58:14.865Z,93.40
2023-04-10T07:00:46.829Z,93.50
2023-04-10T07:03:18.883Z,93.40
2023-04-10T07:05:50.830Z,92.30
2023-04-10T07:08:22.685Z,91.50
2023-04-10T07:10:55.212Z,91.40
2023-04-10T07:13:28.703Z,91.80
2023-04-10T07:16:00.794Z,92.00
2023-04-10T07:18:32.684Z,91.70
2023-04-10T07:21:13.297Z,90.60
2023-04-10T07:23:45.215Z,90.80
2023-04-10T07:26:17.056Z,91.40
2023-04-10T07:28:48.964Z,93.30
2023-04-10T07:31:20.868Z,92.70
2023-04-10T07:33:52.695Z,92.20
2023-04-10T07:36:24.605Z,91.20
2023-04-10T07:38:56.853Z,90.20
2023-04-10T07:41:28.888Z,90.50
2023-04-10T07:44:01.156Z,91.20
2023-04-10T07:46:33.253Z,91.00
2023-04-10T07:49:06.152Z,91.30
2023-04-10T07:51:39.968Z,91.20
2023-04-10T07:54:11.813Z,90.80
2023-04-10T07:56:43.687Z,90.20
2023-04-10T07:59:15.525Z,88.10
2023-04-10T08:01:47.495Z,90.00
2023-04-10T08:04:19.684Z,90.00
2023-04-10T08:06:51.689Z,90.20
2023-04-10T08:09:23.569Z,89.40
2023-04-10T08:11:57.100Z,87.70
2023-04-10T08:14:28.987Z,89.90
2023-04-10T08:17:01.244Z,90.50
2023-04-10T08:19:52.028Z,91.50
2023-04-10T08:22:24.041Z,90.10
2023-04-10T08:24:55.969Z,90.70
2023-04-10T08:27:28.544Z,90.50
2023-04-10T08:30:00.448Z,90.40
2023-04-10T08:32:32.474Z,90.30
2023-04-10T08:35:04.726Z,90.50
2023-04-10T08:37:37.088Z,90.30
2023-04-10T08:40:09.367Z,89.50
2023-04-10T08:42:41.291Z,89.20
2023-04-10T08:45:13.127Z,89.00
2023-04-10T08:47:47.307Z,90.60
2023-04-10T08:50:20.304Z,90.60
2023-04-10T08:52:54.196Z,90.90
2023-04-10T08:55:26.727Z,90.60
2023-04-10T08:58:01.470Z,90.30
2023-04-10T09:00:34.736Z,90.10
2023-04-10T09:03:14.207Z,88.10
2023-04-10T09:05:46.254Z,87.90
2023-04-10T09:08:18.136Z,88.00
2023-04-10T09:10:49.987Z,88.30
2023-04-10T09:13:43.246Z,87.70
2023-04-10T09:16:15.262Z,88.20
2023-04-10T09:18:51.603Z,88.00
2023-04-10T09:21:23.510Z,88.10
2023-04-10T09:24:01.599Z,87.70
2023-04-10T09:26:34.036Z,87.90
2023-04-10T09:29:07.641Z,89.10
2023-04-10T09:31:40.389Z,86.80
2023-04-10T09:34:18.087Z,87.90
2023-04-10T09:36:56.037Z,87.10
2023-04-10T09:39:36.134Z,86.50
2023-04-10T09:42:08.149Z,86.40
2023-04-10T09:44:41.923Z,85.60
2023-04-10T09:47:13.727Z,86.90
2023-04-10T09:49:52.492Z,85.70
2023-04-10T09:52:34.773Z,86.90
2023-04-10T09:55:10.149Z,87.10
2023-04-10T09:57:42.419Z,86.20
2023-04-10T10:00:14.766Z,87.10
2023-04-10T10:02:48.344Z,88.00
2023-04-10T10:05:21.074Z,87.20
2023-04-10T10:07:52.992Z,87.10
2023-04-10T10:10:26.124Z,86.60
2023-04-10T10:13:01.981Z,87.10
2023-04-10T10:15:49.534Z,87.90
2023-04-10T10:18:31.706Z,86.40
2023-04-10T10:21:04.720Z,86.40
2023-04-10T10:23:38.094Z,86.30
2023-04-10T10:26:10.667Z,86.60
2023-04-10T10:28:46.637Z,87.30
2023-04-10T10:31:19.972Z,87.80
2023-04-10T10:33:53.058Z,87.60
2023-04-10T10:36:25.958Z,86.30
2023-04-10T10:39:20.765Z,86.10
2023-04-10T10:42:07.673Z,87.50
2023-04-10T10:45:01.202Z,87.40
2023-04-10T10:47:38.896Z,88.00
2023-04-10T10:50:10.988Z,88.60
2023-04-10T10:52:44.649Z,88.30
2023-04-10T10:55:22.691Z,87.00
2023-04-10T10:57:56.088Z,88.00
2023-04-10T11:00:51.401Z,85.70
2023-04-10T11:03:23.515Z,85.90
2023-04-10T11:06:19.360Z,86.10
2023-04-10T11:08:55.691Z,87.60
2023-04-10T11:11:27.939Z,85.80
2023-04-10T11:13:59.817Z,85.20
2023-04-10T11:16:33.065Z,84.30
2023-04-10T11:19:14.830Z,83.00
2023-04-10T11:22:08.455Z,85.00
2023-04-10T11:25:00.288Z,85.60
2023-04-10T11:27:49.290Z,84.40
2023-04-10T11:30:32.344Z,83.40
2023-04-10T11:33:05.587Z,85.60
2023-04-10T11:35:38.564Z,84.50
2023-04-10T11:38:15.060Z,84.70
2023-04-10T11:40:58.039Z,83.90
2023-04-10T11:43:31.156Z,85.00
2023-04-10T11:46:08.950Z,84.00
2023-04-10T11:48:41.091Z,85.40
2023-04-10T11:51:14.332Z,85.30
2023-04-10T11:53:46.399Z,86.30
2023-04-10T11:56:22.139Z,86.00
2023-04-10T11:58:54.944Z,86.30
2023-04-10T12:01:27.232Z,84.60
2023-04-10T12:03:59.804Z,85.70
2023-04-10T12:06:32.057Z,84.80
2023-04-10T12:09:13.397Z,86.00
2023-04-10T12:12:04.498Z,85.60
2023-04-10T12:14:38.719Z,85.50
2023-04-10T12:17:11.734Z,84.10
2023-04-10T12:19:43.960Z,84.90
2023-04-10T12:22:16.076Z,85.70
2023-04-10T12:24:50.749Z,84.40
2023-04-10T12:27:25.631Z,85.10
2023-04-10T12:29:58.897Z,83.10
2023-04-10T12:32:31.176Z,82.30
2023-04-10T12:35:03.261Z,82.10
2023-04-10T12:37:52.378Z,82.70
2023-04-10T12:40:24.370Z,81.40
2023-04-10T12:42:56.397Z,80.70
2023-04-10T12:45:44.817Z,82.10
2023-04-10T12:48:23.716Z,83.20
2023-04-10T12:50:55.972Z,82.30
2023-04-10T12:53:28.238Z,83.80
2023-04-10T12:56:06.461Z,84.00
2023-04-10T12:58:39.451Z,84.20
2023-04-10T13:01:11.504Z,84.90
2023-04-10T13:03:43.466Z,83.70
2023-04-10T13:06:15.489Z,81.90
2023-04-10T13:08:47.353Z,80.40
2023-04-10T13:11:19.232Z,80.20
2023-04-10T13:13:52.657Z,80.60
2023-04-10T13:16:24.671Z,80.70
2023-04-10T13:18:56.963Z,81.90
2023-04-10T13:21:29.350Z,80.60
2023-04-10T13:24:01.210Z,80.70
2023-04-10T13:26:33.128Z,81.50
2023-04-10T13:29:04.991Z,80.90
2023-04-10T13:31:36.930Z,81.00
2023-04-10T13:34:08.867Z,83.20
2023-04-10T13:36:40.914Z,82.60
2023-04-10T13:39:12.880Z,83.50
2023-04-10T13:41:44.754Z,82.80
2023-04-10T13:44:16.638Z,83.30
2023-04-10T13:46:48.617Z,82.10
2023-04-10T13:49:22.130Z,82.20
2023-04-10T13:51:54.129Z,81.90
2023-04-10T13:54:26.618Z,81.70
2023-04-10T13:56:59.404Z,80.80
2023-04-10T13:59:31.394Z,81.40
2023-04-10T14:02:03.370Z,80.70
2023-04-10T14:04:35.324Z,81.90
2023-04-10T14:07:07.248Z,80.60
2023-04-10T14:09:39.560Z,80.70
2023-04-10T14:12:11.986Z,80.00
2023-04-10T14:14:44.956Z,79.90
2023-04-10T14:17:16.804Z,79.30
2023-04-10T14:19:51.558Z,79.50
2023-04-10T14:22:23.594Z,80.30
2023-04-10T14:25:05.211Z,80.70
2023-04-10T14:27:44.163Z,80.30
2023-04-10T14:30:16.112Z,79.30
2023-04-10T14:32:48.016Z,79.50
2023-04-10T14:35:20.082Z,79.80
2023-04-10T14:37:51.932Z,79.80
2023-04-10T14:40:25.768Z,79.80
2023-04-10T14:42:57.643Z,79.90
2023-04-10T14:45:29.654Z,79.60
2023-04-10T14:48:02.610Z,79.50
2023-04-10T14:50:34.602Z,79.80
2023-04-10T14:53:09.512Z,80.60
2023-04-10T14:55:41.502Z,79.90
2023-04-10T14:58:13.384Z,80.30
2023-04-10T15:00:45.418Z,80.80
2023-04-10T15:03:17.375Z,78.50
2023-04-10T15:05:49.307Z,80.30
2023-04-10T15:08:21.167Z,79.70
2023-04-10T15:10:53.325Z,79.20
2023-04-10T15:13:25.742Z,78.40
2023-04-10T15:15:57.786Z,79.50
2023-04-10T15:18:29.665Z,79.20
2023-04-10T15:21:01.974Z,79.30
2023-04-10T15:23:33.813Z,79.10
2023-04-10T15:26:10.602Z,78.50
2023-04-10T15:28:43.251Z,78.80
2023-04-10T15:31:15.821Z,79.90
2023-04-10T15:33:47.721Z,79.50
2023-04-10T15:36:19.586Z,79.60
2023-04-10T15:38:51.412Z,79.30
2023-04-10T15:41:23.391Z,79.90
2023-04-10T15:43:55.407Z,80.20
2023-04-10T15:46:27.486Z,80.40
2023-04-10T15:49:00.937Z,80.00
2023-04-10T15:51:32.788Z,79.30
2023-04-10T15:54:05.262Z,79.00
2023-04-10T15:56:37.247Z,78.80
2023-04-10T15:59:09.059Z,79.20
2023-04-10T16:01:40.956Z,78.70
2023-04-10T16:04:12.887Z,78.20
2023-04-10T16:06:44.707Z,78.90
2023-04-10T16:09:25.403Z,78.30
2023-04-10T16:11:58.647Z,79.30
2023-04-10T16:14:30.547Z,79.70
2023-04-10T16:17:02.464Z,79.00
2023-04-10T16:19:34.438Z,79.60
2023-04-10T16:22:06.417Z,79.00
2023-04-10T16:24:38.348Z,79.00
2023-04-10T16:27:10.421Z,79.40
2023-04-10T16:29:42.347Z,80.00
2023-04-10T16:32:14.205Z,80.20
2023-04-10T16:34:46.545Z,80.50
2023-04-10T16:37:18.450Z,80.80
2023-04-10T16:39:51.215Z,80.00
2023-04-10T16:42:23.302Z,80.40
2023-04-10T16:44:55.165Z,80.60
2023-04-10T16:47:27.064Z,81.00
2023-04-10T16:49:58.976Z,81.90
2023-04-10T16:52:32.174Z,81.80
2023-04-10T16:55:04.582Z,82.00
2023-04-10T16:57:36.443Z,82.80
2023-04-10T17:00:08.936Z,83.00
2023-04-10T17:02:42.785Z,83.20
2023-04-10T17:05:14.943Z,83.20
2023-04-10T17:07:46.875Z,83.20
2023-04-10T17:10:19.764Z,82.50
2023-04-10T17:12:51.632Z,82.80
2023-04-10T17:15:23.736Z,83.70
2023-04-10T17:17:55.732Z,82.80
2023-04-10T17:20:28.319Z,83.90
2023-04-10T17:23:00.279Z,85.30
2023-04-10T17:25:32.241Z,86.30
2023-04-10T17:28:04.157Z,86.40
2023-04-10T17:30:36.031Z,86.60
2023-04-10T17:33:07.919Z,86.90
2023-04-10T17:35:42.540Z,87.30
2023-04-10T17:38:14.440Z,87.80
2023-04-10T17:40:46.300Z,88.30
2023-04-10T17:43:18.276Z,88.70
2023-04-10T17:45:50.458Z,89.20
2023-04-10T17:48:22.694Z,89.30
2023-04-10T17:50:54.781Z,90.00
2023-04-10T17:53:26.855Z,89.80
2023-04-10T17:55:58.835Z,89.50
2023-04-10T17:58:31.134Z,89.70
2023-04-10T18:01:03.151Z,90.20
2023-04-10T18:03:35.347Z,90.30
2023-04-10T18:06:09.315Z,90.30
2023-04-10T18:08:41.807Z,90.60
2023-04-10T18:11:13.920Z,90.60
2023-04-10T18:13:47.098Z,90.70
2023-04-10T18:16:19.024Z,90.90
2023-04-10T18:18:51.074Z,90.90
2023-04-10T18:21:23.089Z,91.20
2023-04-10T18:23:55.142Z,91.20
2023-04-10T18:26:31.773Z,91.40
2023-04-10T18:29:04.233Z,91.50
2023-04-10T18:31:36.550Z,91.50
2023-04-10T18:34:08.941Z,92.00
2023-04-10T18:36:40.980Z,92.40
2023-04-10T18:39:12.901Z,92.50
2023-04-10T18:41:44.710Z,92.30
2023-04-10T18:44:16.639Z,92.60
2023-04-10T18:46:53.863Z,92.80
2023-04-10T18:49:30.241Z,92.90
2023-04-10T18:52:02.209Z,93.30
2023-04-10T18:54:34.700Z,94.60
2023-04-10T18:57:07.623Z,93.90
2023-04-10T18:59:39.652Z,93.80
2023-04-10T19:02:11.691Z,93.90
2023-04-10T19:04:43.873Z,94.20
2023-04-10T19:07:15.858Z,94.20
2023-04-10T19:09:48.026Z,94.20
2023-04-10T19:12:19.916Z,94.30
2023-04-10T19:14:51.744Z,94.20
2023-04-10T19:17:24.975Z,94.30
2023-04-10T19:19:58.113Z,94.50
2023-04-10T19:22:32.753Z,94.80
2023-04-10T19:25:05.031Z,94.80
2023-04-10T19:27:36.907Z,94.90
2023-04-10T19:30:09.200Z,95.00
2023-04-10T19:32:42.572Z,95.10
2023-04-10T19:35:14.711Z,95.60
2023-04-10T19:37:46.638Z,95.50
2023-04-10T19:40:21.933Z,95.30
2023-04-10T19:42:53.820Z,95.20
2023-04-10T19:45:27.985Z,95.10
2023-04-10T19:48:01.187Z,95.40
2023-04-10T19:50:33.801Z,95.20
2023-04-10T19:53:06.477Z,95.20
2023-04-10T19:55:40.483Z,95.30
2023-04-10T19:58:30.056Z,95.40
2023-04-10T20:01:06.417Z,95.50
2023-04-10T20:03:40.455Z,95.30
2023-04-10T20:06:21.523Z,95.40
2023-04-10T20:08:54.612Z,95.50
2023-04-10T20:11:30.610Z,95.20
2023-04-10T20:14:03.262Z,95.30
2023-04-10T20:16:37.636Z,95.30
2023-04-10T20:19:10.596Z,95.70
2023-04-10T20:21:45.811Z,95.80
2023-04-10T20:24:17.744Z,96.00
2023-04-10T20:26:50.401Z,95.90
2023-04-10T20:29:23.451Z,95.90
2023-04-10T20:31:55.404Z,95.90
2023-04-10T20:34:27.574Z,95.90
2023-04-10T20:36:59.548Z,95.90
2023-04-10T20:39:37.924Z,95.90
2023-04-10T20:42:09.836Z,95.90
2023-04-10T20:44:43.858Z,96.00
2023-04-10T20:47:15.826Z,96.10
2023-04-10T20:49:47.814Z,96.30
2023-04-10T20:52:19.680Z,96.30
2023-04-10T20:54:51.529Z,96.50
2023-04-10T20:57:23.847Z,96.50
2023-04-10T20:59:55.788Z,96.40
2023-04-10T21:02:27.853Z,96.40
2023-04-10T21:04:59.820Z,96.80
2023-04-10T21:07:31.864Z,96.60
2023-04-10T21:10:04.657Z,96.70
2023-04-10T21:12:36.516Z,96.70
2023-04-10T21:15:08.987Z,96.90
2023-04-10T21:17:40.967Z,96.70
2023-04-10T21:20:12.915Z,96.70
2023-04-10T21:22:44.783Z,96.90
2023-04-10T21:25:16.728Z,97.20
2023-04-10T21:27:48.593Z,96.90
2023-04-10T21:30:21.992Z,96.70
2023-04-10T21:32:53.997Z,96.70
2023-04-10T21:35:27.143Z,96.90
2023-04-10T21:38:02.039Z,97.00
2023-04-10T21:40:34.631Z,96.80
2023-04-10T21:43:06.879Z,96.70
2023-04-10T21:45:38.763Z,96.90
2023-04-10T21:48:10.792Z,97.00
2023-04-10T21:50:42.683Z,96.80
2023-04-10T21:53:14.715Z,96.90
2023-04-10T21:55:46.504Z,96.90
2023-04-10T21:58:18.534Z,97.00
2023-04-10T22:00:51.749Z,97.00
2023-04-10T22:03:24.145Z,97.30
2023-04-10T22:05:56.253Z,97.30
2023-04-10T22:08:28.074Z,97.50
2023-04-10T22:10:59.929Z,97.60
2023-04-10T22:13:31.879Z,97.70
2023-04-10T22:16:03.752Z,97.70
2023-04-10T22:18:35.683Z,97.90
2023-04-10T22:21:07.808Z,98.00
2023-04-10T22:23:39.614Z,97.90
2023-04-10T22:26:11.460Z,97.90
2023-04-10T22:28:43.376Z,98.00
2023-04-10T22:31:18.815Z,98.00
2023-04-10T22:33:50.727Z,98.00
2023-04-10T22:36:22.642Z,98.00
2023-04-10T22:38:54.616Z,98.00
2023-04-10T22:41:26.552Z,97.90
2023-04-10T22:43:58.572Z,97.80
2023-04-10T22:46:30.664Z,97.90
2023-04-10T22:49:02.710Z,98.00
2023-04-10T22:51:34.583Z,98.20
2023-04-10T22:54:06.390Z,98.30
2023-04-10T22:56:39.202Z,98.40
2023-04-10T22:59:11.170Z,98.50
2023-04-10T23:01:43.078Z,98.70
2023-04-10T23:04:15.039Z,98.80
2023-04-10T23:06:47.172Z,98.70
2023-04-10T23:09:18.968Z,98.80
2023-04-10T23:11:50.881Z,98.80
2023-04-10T23:14:22.723Z,99.00
2023-04-10T23:16:54.689Z,99.10
2023-04-10T23:19:26.552Z,99.10
2023-04-10T23:21:58.346Z,99.30
2023-04-10T23:24:30.261Z,99.20
2023-04-10T23:27:02.246Z,99.10
2023-04-10T23:29:34.851Z,98.90
2023-04-10T23:32:07.865Z,98.60
2023-04-10T23:34:39.690Z,98.80
2023-04-10T23:37:11.628Z,98.60
2023-04-10T23:39:43.458Z,98.90
2023-04-10T23:42:15.463Z,99.10
2023-04-10T23:44:47.343Z,99.30
2023-04-10T23:47:19.184Z,99.50
2023-04-10T23:49:51.048Z,99.60
2023-04-10T23:52:22.890Z,99.70
2023-04-10T23:54:57.970Z,99.80
2023-04-10T23:57:29.889Z,99.90
